sensor_id;sensor_type;location;lat;lon;timestamp;temperature;humidity
76168;DHT22;64927;48.214;16.378;2023-03-01T00:00:39;3.50;54.80
76168;DHT22;64927;48.214;16.378;2023-03-01T00:03:05;3.60;54.80
76168;DHT22;64927;48.214;16.378;2023-03-01T00:05:31;3.50;54.70
76168;DHT22;64927;48.214;16.378;2023-03-01T00:07:57;3.60;54.40
76168;DHT22;64927;48.214;16.378;2023-03-01T00:10:23;3.60;54.40
76168;DHT22;64927;48.214;16.378;2023-03-01T00:12:49;3.60;54.20
76168;DHT22;64927;48.214;16.378;2023-03-01T00:15:14;3.50;54.20
76168;DHT22;64927;48.214;16.378;2023-03-01T00:17:40;3.60;54.30
76168;DHT22;64927;48.214;16.378;2023-03-01T00:20:08;3.60;54.20
76168;DHT22;64927;48.214;16.378;2023-03-01T00:22:36;3.80;53.90
76168;DHT22;64927;48.214;16.378;2023-03-01T00:25:04;3.70;53.90
76168;DHT22;64927;48.214;16.378;2023-03-01T00:27:30;3.60;54.10
76168;DHT22;64927;48.214;16.378;2023-03-01T00:29:56;3.50;54.70
76168;DHT22;64927;48.214;16.378;2023-03-01T00:32:21;3.60;54.60
76168;DHT22;64927;48.214;16.378;2023-03-01T00:34:47;3.50;54.60
76168;DHT22;64927;48.214;16.378;2023-03-01T00:37:23;3.50;54.50
76168;DHT22;64927;48.214;16.378;2023-03-01T00:39:49;3.50;54.50
76168;DHT22;64927;48.214;16.378;2023-03-01T00:42:17;3.50;54.80
76168;DHT22;64927;48.214;16.378;2023-03-01T00:44:47;3.60;54.40
76168;DHT22;64927;48.214;16.378;2023-03-01T00:47:15;3.60;54.30
76168;DHT22;64927;48.214;16.378;2023-03-01T00:49:41;3.70;54.10
76168;DHT22;64927;48.214;16.378;2023-03-01T00:52:06;3.70;53.90
76168;DHT22;64927;48.214;16.378;2023-03-01T00:54:32;3.60;54.40
76168;DHT22;64927;48.214;16.378;2023-03-01T00:56:58;3.60;54.50
76168;DHT22;64927;48.214;16.378;2023-03-01T00:59:26;3.60;54.40
76168;DHT22;64927;48.214;16.378;2023-03-01T01:01:52;3.60;54.40
76168;DHT22;64927;48.214;16.378;2023-03-01T01:04:18;3.60;54.70
76168;DHT22;64927;48.214;16.378;2023-03-01T01:06:45;3.40;55.00
76168;DHT22;64927;48.214;16.378;2023-03-01T01:09:15;3.40;55.20
76168;DHT22;64927;48.214;16.378;2023-03-01T01:11:50;3.60;54.90
76168;DHT22;64927;48.214;16.378;2023-03-01T01:14:17;3.50;54.80
76168;DHT22;64927;48.214;16.378;2023-03-01T01:16:45;3.70;54.50
76168;DHT22;64927;48.214;16.378;2023-03-01T01:19:11;3.70;54.30
76168;DHT22;64927;48.214;16.378;2023-03-01T01:21:37;3.70;54.40
76168;DHT22;64927;48.214;16.378;2023-03-01T01:24:03;3.60;54.50
76168;DHT22;64927;48.214;16.378;2023-03-01T01:26:33;3.70;54.30
76168;DHT22;64927;48.214;16.378;2023-03-01T01:29:00;3.70;54.20
76168;DHT22;64927;48.214;16.378;2023-03-01T01:31:29;3.80;54.10
76168;DHT22;64927;48.214;16.378;2023-03-01T01:33:56;3.80;53.90
76168;DHT22;64927;48.214;16.378;2023-03-01T01:36:22;3.70;53.90
76168;DHT22;64927;48.214;16.378;2023-03-01T01:38:48;3.50;54.50
76168;DHT22;64927;48.214;16.378;2023-03-01T01:41:14;3.70;54.40
76168;DHT22;64927;48.214;16.378;2023-03-01T01:43:47;3.80;54.20
76168;DHT22;64927;48.214;16.378;2023-03-01T01:46:28;3.80;54.20
76168;DHT22;64927;48.214;16.378;2023-03-01T01:49:29;3.90;54.00
76168;DHT22;64927;48.214;16.378;2023-03-01T01:54:50;4.10;53.40
76168;DHT22;64927;48.214;16.378;2023-03-01T01:57:21;3.90;53.80
76168;DHT22;64927;48.214;16.378;2023-03-01T01:59:54;3.80;54.20
76168;DHT22;64927;48.214;16.378;2023-03-01T02:02:21;3.90;54.00
76168;DHT22;64927;48.214;16.378;2023-03-01T02:04:54;4.00;53.90
76168;DHT22;64927;48.214;16.378;2023-03-01T02:07:22;4.10;53.60
76168;DHT22;64927;48.214;16.378;2023-03-01T02:09:51;4.10;53.90
76168;DHT22;64927;48.214;16.378;2023-03-01T02:12:20;4.00;54.00
76168;DHT22;64927;48.214;16.378;2023-03-01T02:14:47;3.90;54.50
76168;DHT22;64927;48.214;16.378;2023-03-01T02:17:15;3.80;54.60
76168;DHT22;64927;48.214;16.378;2023-03-01T02:22:25;3.80;54.60
76168;DHT22;64927;48.214;16.378;2023-03-01T02:30:36;3.70;54.80
76168;DHT22;64927;48.214;16.378;2023-03-01T02:33:03;3.80;54.40
76168;DHT22;64927;48.214;16.378;2023-03-01T02:35:32;3.70;54.70
76168;DHT22;64927;48.214;16.378;2023-03-01T02:37:59;3.70;54.80
76168;DHT22;64927;48.214;16.378;2023-03-01T02:40:30;3.60;54.90
76168;DHT22;64927;48.214;16.378;2023-03-01T02:42:58;3.70;55.10
76168;DHT22;64927;48.214;16.378;2023-03-01T02:45:25;3.60;54.90
76168;DHT22;64927;48.214;16.378;2023-03-01T02:47:56;3.60;55.20
76168;DHT22;64927;48.214;16.378;2023-03-01T02:53:10;3.50;56.00
76168;DHT22;64927;48.214;16.378;2023-03-01T02:55:37;3.40;55.70
76168;DHT22;64927;48.214;16.378;2023-03-01T02:58:04;3.50;56.00
76168;DHT22;64927;48.214;16.378;2023-03-01T03:00:34;3.40;55.70
76168;DHT22;64927;48.214;16.378;2023-03-01T03:03:01;3.60;55.80
76168;DHT22;64927;48.214;16.378;2023-03-01T03:05:29;3.80;55.00
76168;DHT22;64927;48.214;16.378;2023-03-01T03:08:00;3.70;55.10
76168;DHT22;64927;48.214;16.378;2023-03-01T03:10:29;3.80;55.30
76168;DHT22;64927;48.214;16.378;2023-03-01T03:12:58;3.70;55.50
76168;DHT22;64927;48.214;16.378;2023-03-01T03:15:26;3.60;55.90
76168;DHT22;64927;48.214;16.378;2023-03-01T03:17:53;3.60;56.10
76168;DHT22;64927;48.214;16.378;2023-03-01T03:20:21;3.60;56.10
76168;DHT22;64927;48.214;16.378;2023-03-01T03:22:50;3.60;55.80
76168;DHT22;64927;48.214;16.378;2023-03-01T03:25:17;3.50;56.40
76168;DHT22;64927;48.214;16.378;2023-03-01T03:27:44;3.30;56.70
76168;DHT22;64927;48.214;16.378;2023-03-01T03:30:13;3.50;56.70
76168;DHT22;64927;48.214;16.378;2023-03-01T03:32:40;3.50;56.20
76168;DHT22;64927;48.214;16.378;2023-03-01T03:35:09;3.40;56.30
76168;DHT22;64927;48.214;16.378;2023-03-01T03:37:39;3.30;56.70
76168;DHT22;64927;48.214;16.378;2023-03-01T03:40:24;3.30;56.50
76168;DHT22;64927;48.214;16.378;2023-03-01T03:42:50;3.30;56.70
76168;DHT22;64927;48.214;16.378;2023-03-01T03:45:17;3.50;56.20
76168;DHT22;64927;48.214;16.378;2023-03-01T03:47:43;3.50;55.80
76168;DHT22;64927;48.214;16.378;2023-03-01T03:50:12;3.60;55.80
76168;DHT22;64927;48.214;16.378;2023-03-01T03:52:41;3.50;55.90
76168;DHT22;64927;48.214;16.378;2023-03-01T03:55:08;3.50;56.30
76168;DHT22;64927;48.214;16.378;2023-03-01T03:57:35;3.50;56.00
76168;DHT22;64927;48.214;16.378;2023-03-01T04:00:00;3.50;56.30
76168;DHT22;64927;48.214;16.378;2023-03-01T04:02:26;3.40;56.30
76168;DHT22;64927;48.214;16.378;2023-03-01T04:04:52;3.40;56.60
76168;DHT22;64927;48.214;16.378;2023-03-01T04:07:17;3.40;56.60
76168;DHT22;64927;48.214;16.378;2023-03-01T04:09:43;3.40;56.50
76168;DHT22;64927;48.214;16.378;2023-03-01T04:12:11;3.50;56.60
76168;DHT22;64927;48.214;16.378;2023-03-01T04:14:37;3.60;56.10
76168;DHT22;64927;48.214;16.378;2023-03-01T04:17:02;3.60;56.10
76168;DHT22;64927;48.214;16.378;2023-03-01T04:19:31;3.50;56.60
76168;DHT22;64927;48.214;16.378;2023-03-01T04:22:02;3.20;57.00
76168;DHT22;64927;48.214;16.378;2023-03-01T04:24:35;3.20;57.50
76168;DHT22;64927;48.214;16.378;2023-03-01T04:27:01;3.30;57.40
76168;DHT22;64927;48.214;16.378;2023-03-01T04:29:26;3.40;57.00
76168;DHT22;64927;48.214;16.378;2023-03-01T04:31:52;3.50;56.60
76168;DHT22;64927;48.214;16.378;2023-03-01T04:34:18;3.70;56.40
76168;DHT22;64927;48.214;16.378;2023-03-01T04:36:44;3.70;56.10
76168;DHT22;64927;48.214;16.378;2023-03-01T04:39:14;3.70;56.20
76168;DHT22;64927;48.214;16.378;2023-03-01T04:41:40;3.80;56.20
76168;DHT22;64927;48.214;16.378;2023-03-01T04:44:06;3.70;56.10
76168;DHT22;64927;48.214;16.378;2023-03-01T04:46:32;3.70;56.50
76168;DHT22;64927;48.214;16.378;2023-03-01T04:48:58;3.60;56.80
76168;DHT22;64927;48.214;16.378;2023-03-01T04:51:23;3.70;56.60
76168;DHT22;64927;48.214;16.378;2023-03-01T04:53:51;3.80;56.20
76168;DHT22;64927;48.214;16.378;2023-03-01T04:56:17;3.80;56.30
76168;DHT22;64927;48.214;16.378;2023-03-01T04:58:44;3.70;56.60
76168;DHT22;64927;48.214;16.378;2023-03-01T05:01:12;3.70;57.00
76168;DHT22;64927;48.214;16.378;2023-03-01T05:03:44;3.60;57.40
76168;DHT22;64927;48.214;16.378;2023-03-01T05:06:11;3.60;57.50
76168;DHT22;64927;48.214;16.378;2023-03-01T05:08:40;3.70;56.90
76168;DHT22;64927;48.214;16.378;2023-03-01T05:11:09;3.70;57.00
76168;DHT22;64927;48.214;16.378;2023-03-01T05:13:36;3.60;57.00
76168;DHT22;64927;48.214;16.378;2023-03-01T05:16:03;3.70;56.90
76168;DHT22;64927;48.214;16.378;2023-03-01T05:18:33;3.80;56.90
76168;DHT22;64927;48.214;16.378;2023-03-01T05:21:11;3.60;57.50
76168;DHT22;64927;48.214;16.378;2023-03-01T05:23:37;3.60;57.70
76168;DHT22;64927;48.214;16.378;2023-03-01T05:26:05;3.50;57.50
76168;DHT22;64927;48.214;16.378;2023-03-01T05:28:34;3.40;58.20
76168;DHT22;64927;48.214;16.378;2023-03-01T05:31:00;3.30;58.50
76168;DHT22;64927;48.214;16.378;2023-03-01T05:33:26;3.40;58.40
76168;DHT22;64927;48.214;16.378;2023-03-01T05:35:52;3.30;58.30
76168;DHT22;64927;48.214;16.378;2023-03-01T05:38:20;3.30;58.80
76168;DHT22;64927;48.214;16.378;2023-03-01T05:40:47;3.30;58.70
76168;DHT22;64927;48.214;16.378;2023-03-01T05:43:14;3.60;57.80
76168;DHT22;64927;48.214;16.378;2023-03-01T05:45:41;3.70;57.10
76168;DHT22;64927;48.214;16.378;2023-03-01T05:48:10;3.70;57.10
76168;DHT22;64927;48.214;16.378;2023-03-01T05:50:39;3.70;57.10
76168;DHT22;64927;48.214;16.378;2023-03-01T05:53:11;3.80;57.10
76168;DHT22;64927;48.214;16.378;2023-03-01T05:55:40;4.00;56.70
76168;DHT22;64927;48.214;16.378;2023-03-01T05:58:09;4.20;55.90
76168;DHT22;64927;48.214;16.378;2023-03-01T06:00:35;4.10;56.20
76168;DHT22;64927;48.214;16.378;2023-03-01T06:03:01;4.10;55.80
76168;DHT22;64927;48.214;16.378;2023-03-01T06:05:27;3.80;57.00
76168;DHT22;64927;48.214;16.378;2023-03-01T06:07:53;3.60;57.80
76168;DHT22;64927;48.214;16.378;2023-03-01T06:10:21;3.50;58.20
76168;DHT22;64927;48.214;16.378;2023-03-01T06:12:47;3.50;58.30
76168;DHT22;64927;48.214;16.378;2023-03-01T06:15:14;3.40;58.40
76168;DHT22;64927;48.214;16.378;2023-03-01T06:17:42;3.40;58.70
76168;DHT22;64927;48.214;16.378;2023-03-01T06:20:12;3.50;58.80
76168;DHT22;64927;48.214;16.378;2023-03-01T06:22:39;3.50;58.60
76168;DHT22;64927;48.214;16.378;2023-03-01T06:25:06;3.50;58.50
76168;DHT22;64927;48.214;16.378;2023-03-01T06:27:32;3.80;58.30
76168;DHT22;64927;48.214;16.378;2023-03-01T06:29:58;3.80;57.30
76168;DHT22;64927;48.214;16.378;2023-03-01T06:32:24;3.80;57.50
76168;DHT22;64927;48.214;16.378;2023-03-01T06:34:51;3.80;57.70
76168;DHT22;64927;48.214;16.378;2023-03-01T06:37:17;3.90;57.40
76168;DHT22;64927;48.214;16.378;2023-03-01T06:39:43;3.80;57.50
76168;DHT22;64927;48.214;16.378;2023-03-01T06:42:11;3.70;58.10
76168;DHT22;64927;48.214;16.378;2023-03-01T06:44:37;3.80;57.90
76168;DHT22;64927;48.214;16.378;2023-03-01T06:47:04;3.80;57.70
76168;DHT22;64927;48.214;16.378;2023-03-01T06:49:30;3.80;57.60
76168;DHT22;64927;48.214;16.378;2023-03-01T06:51:56;3.90;57.60
76168;DHT22;64927;48.214;16.378;2023-03-01T06:54:22;4.00;57.60
76168;DHT22;64927;48.214;16.378;2023-03-01T06:56:49;4.30;56.90
76168;DHT22;64927;48.214;16.378;2023-03-01T06:59:16;4.20;56.30
76168;DHT22;64927;48.214;16.378;2023-03-01T07:01:42;4.10;56.80
76168;DHT22;64927;48.214;16.378;2023-03-01T07:04:07;4.10;56.40
76168;DHT22;64927;48.214;16.378;2023-03-01T07:06:36;4.10;56.90
76168;DHT22;64927;48.214;16.378;2023-03-01T07:09:01;4.30;56.40
76168;DHT22;64927;48.214;16.378;2023-03-01T07:11:27;4.30;55.70
76168;DHT22;64927;48.214;16.378;2023-03-01T07:13:53;4.50;55.80
76168;DHT22;64927;48.214;16.378;2023-03-01T07:16:18;4.70;55.20
76168;DHT22;64927;48.214;16.378;2023-03-01T07:18:45;4.70;54.40
76168;DHT22;64927;48.214;16.378;2023-03-01T07:21:13;4.60;53.90
76168;DHT22;64927;48.214;16.378;2023-03-01T07:23:39;4.50;54.30
76168;DHT22;64927;48.214;16.378;2023-03-01T07:26:07;4.30;56.20
76168;DHT22;64927;48.214;16.378;2023-03-01T07:28:33;4.50;54.90
76168;DHT22;64927;48.214;16.378;2023-03-01T07:31:05;4.50;54.60
76168;DHT22;64927;48.214;16.378;2023-03-01T07:33:31;4.40;55.00
76168;DHT22;64927;48.214;16.378;2023-03-01T07:36:01;4.30;55.20
76168;DHT22;64927;48.214;16.378;2023-03-01T07:38:28;4.50;54.80
76168;DHT22;64927;48.214;16.378;2023-03-01T07:40:57;4.60;54.40
76168;DHT22;64927;48.214;16.378;2023-03-01T07:43:23;4.50;54.70
76168;DHT22;64927;48.214;16.378;2023-03-01T07:45:48;4.40;54.80
76168;DHT22;64927;48.214;16.378;2023-03-01T07:48:14;4.60;54.90
76168;DHT22;64927;48.214;16.378;2023-03-01T07:50:42;4.50;55.10
76168;DHT22;64927;48.214;16.378;2023-03-01T07:53:09;4.60;54.80
76168;DHT22;64927;48.214;16.378;2023-03-01T07:55:34;4.70;54.40
76168;DHT22;64927;48.214;16.378;2023-03-01T07:58:00;4.80;54.70
76168;DHT22;64927;48.214;16.378;2023-03-01T08:00:26;5.30;54.10
76168;DHT22;64927;48.214;16.378;2023-03-01T08:02:51;5.60;52.90
76168;DHT22;64927;48.214;16.378;2023-03-01T08:05:17;5.70;52.40
76168;DHT22;64927;48.214;16.378;2023-03-01T08:07:43;5.80;51.50
76168;DHT22;64927;48.214;16.378;2023-03-01T08:10:09;5.80;51.50
76168;DHT22;64927;48.214;16.378;2023-03-01T08:12:35;6.00;51.50
76168;DHT22;64927;48.214;16.378;2023-03-01T08:15:01;6.20;50.50
76168;DHT22;64927;48.214;16.378;2023-03-01T08:17:26;6.20;50.80
76168;DHT22;64927;48.214;16.378;2023-03-01T08:19:52;6.50;50.20
76168;DHT22;64927;48.214;16.378;2023-03-01T08:22:18;6.50;49.30
76168;DHT22;64927;48.214;16.378;2023-03-01T08:24:43;6.30;48.80
76168;DHT22;64927;48.214;16.378;2023-03-01T08:27:09;6.40;49.40
76168;DHT22;64927;48.214;16.378;2023-03-01T08:29:37;6.40;49.10
76168;DHT22;64927;48.214;16.378;2023-03-01T08:32:03;6.40;49.40
76168;DHT22;64927;48.214;16.378;2023-03-01T08:34:29;6.50;48.80
76168;DHT22;64927;48.214;16.378;2023-03-01T08:36:56;6.60;48.90
76168;DHT22;64927;48.214;16.378;2023-03-01T08:39:24;6.60;49.00
76168;DHT22;64927;48.214;16.378;2023-03-01T08:41:50;6.80;48.30
76168;DHT22;64927;48.214;16.378;2023-03-01T08:44:16;6.80;48.00
76168;DHT22;64927;48.214;16.378;2023-03-01T08:46:46;7.00;47.90
76168;DHT22;64927;48.214;16.378;2023-03-01T08:49:15;7.10;47.40
76168;DHT22;64927;48.214;16.378;2023-03-01T08:51:43;7.30;48.00
76168;DHT22;64927;48.214;16.378;2023-03-01T08:54:14;7.50;46.90
76168;DHT22;64927;48.214;16.378;2023-03-01T08:56:40;7.70;46.20
76168;DHT22;64927;48.214;16.378;2023-03-01T08:59:06;7.70;46.00
76168;DHT22;64927;48.214;16.378;2023-03-01T09:01:32;7.80;45.90
76168;DHT22;64927;48.214;16.378;2023-03-01T09:03:58;7.90;45.80
76168;DHT22;64927;48.214;16.378;2023-03-01T09:06:23;8.00;45.50
76168;DHT22;64927;48.214;16.378;2023-03-01T09:08:49;7.70;45.70
76168;DHT22;64927;48.214;16.378;2023-03-01T09:11:18;7.80;46.00
76168;DHT22;64927;48.214;16.378;2023-03-01T09:13:47;7.80;46.00
76168;DHT22;64927;48.214;16.378;2023-03-01T09:16:17;7.90;46.00
76168;DHT22;64927;48.214;16.378;2023-03-01T09:18:54;8.00;45.60
76168;DHT22;64927;48.214;16.378;2023-03-01T09:21:22;8.10;45.00
76168;DHT22;64927;48.214;16.378;2023-03-01T09:23:48;8.10;44.70
76168;DHT22;64927;48.214;16.378;2023-03-01T09:26:20;8.00;45.10
76168;DHT22;64927;48.214;16.378;2023-03-01T09:28:48;8.50;52.70
76168;DHT22;64927;48.214;16.378;2023-03-01T09:31:15;8.80;47.70
76168;DHT22;64927;48.214;16.378;2023-03-01T09:33:42;8.80;44.60
76168;DHT22;64927;48.214;16.378;2023-03-01T09:36:12;8.70;44.40
76168;DHT22;64927;48.214;16.378;2023-03-01T09:38:38;8.70;44.40
76168;DHT22;64927;48.214;16.378;2023-03-01T09:43:57;8.40;43.90
76168;DHT22;64927;48.214;16.378;2023-03-01T09:46:25;8.30;44.70
76168;DHT22;64927;48.214;16.378;2023-03-01T09:49:02;8.30;44.50
76168;DHT22;64927;48.214;16.378;2023-03-01T09:51:34;8.50;44.10
76168;DHT22;64927;48.214;16.378;2023-03-01T09:54:04;8.40;43.60
76168;DHT22;64927;48.214;16.378;2023-03-01T09:56:41;8.50;44.10
76168;DHT22;64927;48.214;16.378;2023-03-01T10:01:58;8.40;43.90
76168;DHT22;64927;48.214;16.378;2023-03-01T10:10:48;8.30;44.40
76168;DHT22;64927;48.214;16.378;2023-03-01T10:13:24;8.50;45.10
76168;DHT22;64927;48.214;16.378;2023-03-01T10:15:55;8.70;43.50
76168;DHT22;64927;48.214;16.378;2023-03-01T10:18:26;8.70;43.50
76168;DHT22;64927;48.214;16.378;2023-03-01T10:20:59;8.70;43.00
76168;DHT22;64927;48.214;16.378;2023-03-01T10:23:27;8.70;43.10
76168;DHT22;64927;48.214;16.378;2023-03-01T10:31:22;8.80;43.10
76168;DHT22;64927;48.214;16.378;2023-03-01T10:33:53;8.60;43.70
76168;DHT22;64927;48.214;16.378;2023-03-01T10:36:23;8.60;43.50
76168;DHT22;64927;48.214;16.378;2023-03-01T10:38:53;8.40;44.40
76168;DHT22;64927;48.214;16.378;2023-03-01T10:41:24;8.60;44.00
76168;DHT22;64927;48.214;16.378;2023-03-01T10:43:57;8.60;44.00
76168;DHT22;64927;48.214;16.378;2023-03-01T10:46:32;8.70;43.60
76168;DHT22;64927;48.214;16.378;2023-03-01T10:49:16;8.60;44.10
76168;DHT22;64927;48.214;16.378;2023-03-01T10:51:52;8.70;43.90
76168;DHT22;64927;48.214;16.378;2023-03-01T10:54:30;8.70;44.10
76168;DHT22;64927;48.214;16.378;2023-03-01T10:57:01;8.80;44.00
76168;DHT22;64927;48.214;16.378;2023-03-01T10:59:35;8.80;43.90
76168;DHT22;64927;48.214;16.378;2023-03-01T11:02:28;8.90;44.00
76168;DHT22;64927;48.214;16.378;2023-03-01T11:07:52;9.30;43.30
76168;DHT22;64927;48.214;16.378;2023-03-01T11:10:23;9.30;43.30
76168;DHT22;64927;48.214;16.378;2023-03-01T11:12:51;9.50;43.20
76168;DHT22;64927;48.214;16.378;2023-03-01T11:15:24;9.70;43.20
76168;DHT22;64927;48.214;16.378;2023-03-01T11:17:50;9.70;42.30
76168;DHT22;64927;48.214;16.378;2023-03-01T11:20:34;9.60;43.00
76168;DHT22;64927;48.214;16.378;2023-03-01T11:23:05;9.60;42.70
76168;DHT22;64927;48.214;16.378;2023-03-01T11:25:42;9.50;42.50
76168;DHT22;64927;48.214;16.378;2023-03-01T11:28:14;9.40;42.40
76168;DHT22;64927;48.214;16.378;2023-03-01T11:33:20;9.50;42.10
76168;DHT22;64927;48.214;16.378;2023-03-01T11:35:58;9.50;42.20
76168;DHT22;64927;48.214;16.378;2023-03-01T11:38:28;9.30;42.80
76168;DHT22;64927;48.214;16.378;2023-03-01T11:40:57;9.30;43.00
76168;DHT22;64927;48.214;16.378;2023-03-01T12:08:37;9.10;43.60
76168;DHT22;64927;48.214;16.378;2023-03-01T12:14:13;9.50;43.70
76168;DHT22;64927;48.214;16.378;2023-03-01T12:22:35;10.00;42.40
76168;DHT22;64927;48.214;16.378;2023-03-01T12:33:09;10.30;41.70
76168;DHT22;64927;48.214;16.378;2023-03-01T12:35:51;10.50;42.00
76168;DHT22;64927;48.214;16.378;2023-03-01T12:39:19;10.60;41.70
76168;DHT22;64927;48.214;16.378;2023-03-01T12:49:17;10.40;41.90
76168;DHT22;64927;48.214;16.378;2023-03-01T12:54:45;10.50;41.60
76168;DHT22;64927;48.214;16.378;2023-03-01T12:57:42;10.40;41.90
76168;DHT22;64927;48.214;16.378;2023-03-01T13:00:27;10.40;42.10
76168;DHT22;64927;48.214;16.378;2023-03-01T13:06:15;10.50;42.10
76168;DHT22;64927;48.214;16.378;2023-03-01T13:08:54;10.50;42.10
76168;DHT22;64927;48.214;16.378;2023-03-01T13:11:22;10.40;43.10
76168;DHT22;64927;48.214;16.378;2023-03-01T13:13:51;10.40;42.90
76168;DHT22;64927;48.214;16.378;2023-03-01T13:19:13;10.10;43.50
76168;DHT22;64927;48.214;16.378;2023-03-01T13:21:40;10.00;43.90
76168;DHT22;64927;48.214;16.378;2023-03-01T13:24:33;10.10;44.10
76168;DHT22;64927;48.214;16.378;2023-03-01T13:32:24;10.40;43.50
76168;DHT22;64927;48.214;16.378;2023-03-01T13:37:37;10.40;43.80
76168;DHT22;64927;48.214;16.378;2023-03-01T13:42:46;10.60;43.40
76168;DHT22;64927;48.214;16.378;2023-03-01T13:45:23;10.50;43.80
76168;DHT22;64927;48.214;16.378;2023-03-01T13:48:04;10.60;43.00
76168;DHT22;64927;48.214;16.378;2023-03-01T13:50:38;10.50;43.20
76168;DHT22;64927;48.214;16.378;2023-03-01T13:53:16;10.40;43.60
76168;DHT22;64927;48.214;16.378;2023-03-01T13:55:48;10.30;44.10
76168;DHT22;64927;48.214;16.378;2023-03-01T14:01:04;10.10;44.80
76168;DHT22;64927;48.214;16.378;2023-03-01T14:03:34;10.00;45.00
76168;DHT22;64927;48.214;16.378;2023-03-01T14:06:09;10.00;45.20
76168;DHT22;64927;48.214;16.378;2023-03-01T14:08:37;10.10;45.10
76168;DHT22;64927;48.214;16.378;2023-03-01T14:14:29;10.00;45.80
76168;DHT22;64927;48.214;16.378;2023-03-01T14:17:39;10.00;46.90
76168;DHT22;64927;48.214;16.378;2023-03-01T14:20:11;10.00;46.10
76168;DHT22;64927;48.214;16.378;2023-03-01T14:22:40;10.20;46.20
76168;DHT22;64927;48.214;16.378;2023-03-01T14:27:45;10.00;46.10
76168;DHT22;64927;48.214;16.378;2023-03-01T14:30:23;10.00;46.30
76168;DHT22;64927;48.214;16.378;2023-03-01T14:32:55;10.10;46.30
76168;DHT22;64927;48.214;16.378;2023-03-01T14:37:54;10.10;46.10
76168;DHT22;64927;48.214;16.378;2023-03-01T14:40:24;10.10;46.30
76168;DHT22;64927;48.214;16.378;2023-03-01T14:42:51;10.10;46.30
76168;DHT22;64927;48.214;16.378;2023-03-01T14:45:18;10.10;46.30
76168;DHT22;64927;48.214;16.378;2023-03-01T14:47:45;10.00;46.20
76168;DHT22;64927;48.214;16.378;2023-03-01T14:50:32;9.90;46.70
76168;DHT22;64927;48.214;16.378;2023-03-01T14:53:03;9.90;46.90
76168;DHT22;64927;48.214;16.378;2023-03-01T14:55:42;9.90;46.80
76168;DHT22;64927;48.214;16.378;2023-03-01T14:58:12;9.90;46.90
76168;DHT22;64927;48.214;16.378;2023-03-01T15:00:39;9.90;47.00
76168;DHT22;64927;48.214;16.378;2023-03-01T15:03:14;9.90;46.70
76168;DHT22;64927;48.214;16.378;2023-03-01T15:05:46;9.90;46.90
76168;DHT22;64927;48.214;16.378;2023-03-01T15:08:19;9.90;47.00
76168;DHT22;64927;48.214;16.378;2023-03-01T15:10:57;9.80;47.20
76168;DHT22;64927;48.214;16.378;2023-03-01T15:13:25;9.90;47.20
76168;DHT22;64927;48.214;16.378;2023-03-01T15:15:59;10.00;47.20
76168;DHT22;64927;48.214;16.378;2023-03-01T15:18:28;10.00;46.90
76168;DHT22;64927;48.214;16.378;2023-03-01T15:21:06;10.00;46.60
76168;DHT22;64927;48.214;16.378;2023-03-01T15:23:34;10.00;46.70
76168;DHT22;64927;48.214;16.378;2023-03-01T15:26:04;10.00;47.00
76168;DHT22;64927;48.214;16.378;2023-03-01T15:28:35;10.00;46.90
76168;DHT22;64927;48.214;16.378;2023-03-01T15:31:04;10.00;46.60
76168;DHT22;64927;48.214;16.378;2023-03-01T15:33:36;10.00;46.80
76168;DHT22;64927;48.214;16.378;2023-03-01T15:38:55;10.00;46.60
76168;DHT22;64927;48.214;16.378;2023-03-01T15:41:31;10.00;46.70
76168;DHT22;64927;48.214;16.378;2023-03-01T15:44:03;10.00;46.50
76168;DHT22;64927;48.214;16.378;2023-03-01T15:46:39;10.00;46.10
76168;DHT22;64927;48.214;16.378;2023-03-01T15:49:26;10.00;46.10
76168;DHT22;64927;48.214;16.378;2023-03-01T15:51:54;9.90;46.50
76168;DHT22;64927;48.214;16.378;2023-03-01T15:54:26;10.00;46.30
76168;DHT22;64927;48.214;16.378;2023-03-01T15:56:56;10.00;46.10
76168;DHT22;64927;48.214;16.378;2023-03-01T15:59:22;9.90;46.00
76168;DHT22;64927;48.214;16.378;2023-03-01T16:01:50;9.90;46.20
76168;DHT22;64927;48.214;16.378;2023-03-01T16:04:17;10.00;46.40
76168;DHT22;64927;48.214;16.378;2023-03-01T16:06:50;10.00;46.10
76168;DHT22;64927;48.214;16.378;2023-03-01T16:09:25;10.10;46.00
76168;DHT22;64927;48.214;16.378;2023-03-01T16:11:51;10.20;46.00
76168;DHT22;64927;48.214;16.378;2023-03-01T16:14:17;10.20;45.60
76168;DHT22;64927;48.214;16.378;2023-03-01T16:16:44;10.10;45.60
76168;DHT22;64927;48.214;16.378;2023-03-01T16:19:10;10.10;45.70
76168;DHT22;64927;48.214;16.378;2023-03-01T16:21:39;10.10;45.70
76168;DHT22;64927;48.214;16.378;2023-03-01T16:24:08;10.10;45.60
76168;DHT22;64927;48.214;16.378;2023-03-01T16:26:35;10.00;45.80
76168;DHT22;64927;48.214;16.378;2023-03-01T16:29:01;9.90;45.80
76168;DHT22;64927;48.214;16.378;2023-03-01T16:31:27;9.90;45.90
76168;DHT22;64927;48.214;16.378;2023-03-01T16:33:55;10.00;45.80
76168;DHT22;64927;48.214;16.378;2023-03-01T16:36:25;10.00;45.90
76168;DHT22;64927;48.214;16.378;2023-03-01T16:38:54;10.00;45.80
76168;DHT22;64927;48.214;16.378;2023-03-01T16:41:23;9.90;45.80
76168;DHT22;64927;48.214;16.378;2023-03-01T16:43:50;9.90;46.00
76168;DHT22;64927;48.214;16.378;2023-03-01T16:46:22;9.90;45.90
76168;DHT22;64927;48.214;16.378;2023-03-01T16:48:52;9.90;46.00
76168;DHT22;64927;48.214;16.378;2023-03-01T16:51:18;9.90;46.00
76168;DHT22;64927;48.214;16.378;2023-03-01T16:53:45;9.90;46.10
76168;DHT22;64927;48.214;16.378;2023-03-01T16:56:12;9.90;46.00
76168;DHT22;64927;48.214;16.378;2023-03-01T16:58:39;9.90;45.90
76168;DHT22;64927;48.214;16.378;2023-03-01T17:01:11;9.90;45.90
76168;DHT22;64927;48.214;16.378;2023-03-01T17:03:38;9.90;46.00
76168;DHT22;64927;48.214;16.378;2023-03-01T17:06:07;9.90;45.90
76168;DHT22;64927;48.214;16.378;2023-03-01T17:08:33;9.80;46.10
76168;DHT22;64927;48.214;16.378;2023-03-01T17:11:06;9.90;46.10
76168;DHT22;64927;48.214;16.378;2023-03-01T17:13:36;9.90;46.10
76168;DHT22;64927;48.214;16.378;2023-03-01T17:16:06;9.90;46.10
76168;DHT22;64927;48.214;16.378;2023-03-01T17:18:33;9.80;46.30
76168;DHT22;64927;48.214;16.378;2023-03-01T17:20:59;9.90;46.30
76168;DHT22;64927;48.214;16.378;2023-03-01T17:23:29;9.90;46.30
76168;DHT22;64927;48.214;16.378;2023-03-01T17:25:55;9.90;46.30
76168;DHT22;64927;48.214;16.378;2023-03-01T17:28:22;9.90;46.30
76168;DHT22;64927;48.214;16.378;2023-03-01T17:30:49;9.80;46.50
76168;DHT22;64927;48.214;16.378;2023-03-01T17:33:15;9.70;46.70
76168;DHT22;64927;48.214;16.378;2023-03-01T17:35:44;9.60;46.90
76168;DHT22;64927;48.214;16.378;2023-03-01T17:38:15;9.60;47.00
76168;DHT22;64927;48.214;16.378;2023-03-01T17:40:44;9.50;46.90